createdAt,value
2017-04-03T00:00:05.553Z,0
2017-04-03T00:00:46.133Z,0
2017-04-03T00:03:04.074Z,0
2017-04-03T00:03:44.655Z,0
2017-04-03T00:04:25.245Z,0
2017-04-03T00:05:05.824Z,0
2017-04-03T00:05:46.411Z,0
2017-04-03T00:06:27.004Z,0
2017-04-03T00:07:07.587Z,0
2017-04-03T00:07:48.151Z,0
2017-04-03T00:08:28.743Z,0
2017-04-03T00:09:09.321Z,0
2017-04-03T00:09:49.904Z,0
2017-04-03T00:12:28.203Z,0
2017-04-03T00:13:08.788Z,0
2017-04-03T00:13:49.371Z,0
2017-04-03T00:14:29.957Z,0
2017-04-03T00:15:10.539Z,0
2017-04-03T00:15:51.122Z,0
2017-04-03T00:16:31.694Z,0
2017-04-03T00:17:12.276Z,0
2017-04-03T00:17:52.854Z,0
2017-04-03T00:18:33.435Z,0
2017-04-03T00:19:14.016Z,0
2017-04-03T00:19:54.601Z,0
2017-04-03T00:20:35.179Z,0
2017-04-03T00:21:15.761Z,0
2017-04-03T00:21:56.338Z,0
2017-04-03T00:22:36.912Z,0
2017-04-03T00:23:17.492Z,0
2017-04-03T00:23:58.071Z,0
2017-04-03T00:24:38.655Z,0
2017-04-03T00:25:19.239Z,0
2017-04-03T00:25:59.815Z,0
2017-04-03T00:26:40.396Z,0
2017-04-03T00:27:20.983Z,0
2017-04-03T00:28:01.556Z,0
2017-04-03T00:28:42.145Z,0
2017-04-03T00:29:22.737Z,0
2017-04-03T00:30:03.322Z,0
2017-04-03T00:30:43.905Z,0
2017-04-03T00:31:24.490Z,0
2017-04-03T00:32:05.061Z,0
2017-04-03T00:33:00.445Z,0
2017-04-03T00:33:41.011Z,0
2017-04-03T00:34:21.595Z,0
2017-04-03T00:35:02.185Z,0
2017-04-03T00:35:42.760Z,0
2017-04-03T00:36:23.345Z,0
2017-04-03T00:37:03.915Z,0
2017-04-03T00:37:44.493Z,0
2017-04-03T00:38:25.076Z,0
2017-04-03T00:39:05.661Z,0
2017-04-03T00:39:46.245Z,0
2017-04-03T00:40:26.822Z,0
2017-04-03T00:41:07.401Z,0
2017-04-03T00:41:47.984Z,0
2017-04-03T00:42:28.569Z,0
2017-04-03T00:43:09.151Z,0
2017-04-03T00:43:49.733Z,0
2017-04-03T00:44:30.318Z,0
2017-04-03T00:45:10.902Z,0
2017-04-03T00:45:51.489Z,0
2017-04-03T00:46:32.063Z,0
2017-04-03T00:47:12.647Z,0
2017-04-03T00:47:53.223Z,0
2017-04-03T00:48:33.815Z,0
2017-04-03T00:49:29.228Z,0
2017-04-03T00:50:09.812Z,0
2017-04-03T00:50:50.398Z,0
2017-04-03T00:51:30.974Z,0
2017-04-03T00:52:11.569Z,0
2017-04-03T00:52:52.164Z,0
2017-04-03T00:53:32.735Z,0
2017-04-03T00:54:13.320Z,0
2017-04-03T00:54:53.900Z,0
2017-04-03T00:55:34.481Z,0
2017-04-03T00:56:15.068Z,0
2017-04-03T00:58:48.264Z,0
2017-04-03T00:59:28.841Z,0
2017-04-03T01:00:09.429Z,0
2017-04-03T01:00:50.009Z,0
2017-04-03T01:01:30.597Z,0
2017-04-03T01:02:11.182Z,0
2017-04-03T01:02:51.760Z,0
2017-04-03T01:03:32.341Z,0
2017-04-03T01:04:12.927Z,0
2017-04-03T01:04:53.512Z,0
2017-04-03T01:05:34.093Z,0
2017-04-03T01:06:14.676Z,0
2017-04-03T01:06:55.256Z,0
2017-04-03T01:07:35.836Z,0
2017-04-03T01:08:16.417Z,0
2017-04-03T01:08:57.003Z,0
2017-04-03T01:09:37.578Z,0
2017-04-03T01:10:18.150Z,0
2017-04-03T01:10:58.731Z,0
2017-04-03T01:11:39.310Z,0
2017-04-03T01:12:19.890Z,0
2017-04-03T01:13:00.471Z,0
2017-04-03T01:13:41.048Z,0
2017-04-03T01:14:21.636Z,0
2017-04-03T01:15:02.218Z,0
2017-04-03T01:15:42.800Z,0
2017-04-03T01:16:23.387Z,0
2017-04-03T01:17:03.969Z,0
2017-04-03T01:17:44.557Z,0
2017-04-03T01:18:25.143Z,0
2017-04-03T01:19:05.721Z,0
2017-04-03T01:19:46.305Z,0
2017-04-03T01:20:26.892Z,0
2017-04-03T01:21:22.282Z,0
2017-04-03T01:22:02.871Z,0
2017-04-03T01:22:58.230Z,0
2017-04-03T01:23:38.814Z,0
2017-04-03T01:24:19.401Z,0
2017-04-03T01:24:59.988Z,0
2017-04-03T01:25:40.563Z,0
2017-04-03T01:26:21.143Z,0
2017-04-03T01:27:01.734Z,0
2017-04-03T01:27:42.312Z,0
2017-04-03T01:28:22.896Z,0
2017-04-03T01:29:03.481Z,0
2017-04-03T01:29:44.139Z,0
2017-04-03T01:30:24.721Z,0
2017-04-03T01:31:05.301Z,0
2017-04-03T01:31:45.895Z,0
2017-04-03T01:32:26.472Z,0
2017-04-03T01:33:07.057Z,0
2017-04-03T01:33:47.631Z,0
2017-04-03T01:34:28.218Z,0
2017-04-03T01:35:08.800Z,0
2017-04-03T01:35:49.386Z,0
2017-04-03T01:36:29.973Z,0
2017-04-03T01:37:10.556Z,0
2017-04-03T01:37:51.256Z,0
2017-04-03T01:38:31.838Z,0
2017-04-03T01:39:12.424Z,0
2017-04-03T01:39:53.008Z,0
2017-04-03T01:40:33.594Z,0
2017-04-03T01:41:14.175Z,0
2017-04-03T01:41:54.758Z,0
2017-04-03T01:42:35.341Z,0
2017-04-03T01:43:15.918Z,0
2017-04-03T01:43:56.491Z,0
2017-04-03T01:44:37.069Z,0
2017-04-03T01:45:17.654Z,0
2017-04-03T01:45:58.232Z,0
2017-04-03T01:46:38.816Z,0
2017-04-03T01:47:19.395Z,0
2017-04-03T01:47:59.975Z,0
2017-04-03T01:48:40.551Z,0
2017-04-03T01:49:21.136Z,0
2017-04-03T01:50:01.722Z,0
2017-04-03T01:50:42.306Z,0
2017-04-03T01:51:22.884Z,0
2017-04-03T01:52:03.475Z,0
2017-04-03T01:52:44.060Z,0
2017-04-03T01:53:24.678Z,0
2017-04-03T01:54:05.220Z,0
2017-04-03T01:54:45.802Z,0
2017-04-03T01:55:26.385Z,0
2017-04-03T01:56:06.963Z,0
2017-04-03T01:56:47.551Z,0
2017-04-03T01:57:28.137Z,0
2017-04-03T01:58:08.735Z,0
2017-04-03T01:58:49.310Z,0
2017-04-03T01:59:29.896Z,0
2017-04-03T02:00:10.480Z,0
2017-04-03T02:00:51.059Z,0
2017-04-03T02:01:31.662Z,0
2017-04-03T02:02:12.239Z,0
2017-04-03T02:02:52.820Z,0
2017-04-03T02:03:33.405Z,0
2017-04-03T02:04:13.985Z,0
2017-04-03T02:04:54.572Z,0
2017-04-03T02:05:35.153Z,0
2017-04-03T02:06:15.733Z,0
2017-04-03T02:06:56.317Z,0
2017-04-03T02:07:36.899Z,0
2017-04-03T02:08:17.477Z,0
2017-04-03T02:08:58.061Z,0
2017-04-03T02:09:38.649Z,0
2017-04-03T02:10:19.227Z,0
2017-04-03T02:10:59.811Z,0
2017-04-03T02:11:40.394Z,0
2017-04-03T02:12:20.979Z,0
2017-04-03T02:13:01.569Z,0
2017-04-03T02:13:42.148Z,0
2017-04-03T02:14:22.735Z,0
2017-04-03T02:15:03.320Z,0
2017-04-03T02:15:43.900Z,0
2017-04-03T02:16:24.475Z,0
2017-04-03T02:17:05.061Z,0
2017-04-03T02:17:45.648Z,0
2017-04-03T02:18:26.245Z,0
2017-04-03T02:19:06.819Z,0
2017-04-03T02:19:47.397Z,0
2017-04-03T02:20:27.987Z,0
2017-04-03T02:21:08.568Z,0
2017-04-03T02:21:49.153Z,0
2017-04-03T02:22:29.739Z,0
2017-04-03T02:23:10.319Z,0
2017-04-03T02:23:50.898Z,0
2017-04-03T02:24:31.478Z,0
2017-04-03T02:25:12.060Z,0
2017-04-03T02:25:52.645Z,0
2017-04-03T02:26:33.223Z,0
2017-04-03T02:27:13.808Z,0
2017-04-03T02:27:54.395Z,0
2017-04-03T02:28:34.979Z,0
2017-04-03T02:29:15.565Z,0
2017-04-03T02:29:56.152Z,0
2017-04-03T02:32:29.348Z,0
2017-04-03T02:33:09.931Z,0
2017-04-03T02:33:50.519Z,0
2017-04-03T02:34:31.092Z,0
2017-04-03T02:35:11.676Z,0
2017-04-03T02:35:52.242Z,0
2017-04-03T02:36:32.820Z,0
2017-04-03T02:37:14.689Z,0
2017-04-03T02:37:54.399Z,0
2017-04-03T02:38:34.983Z,0
2017-04-03T02:39:15.565Z,0
2017-04-03T02:39:56.151Z,0
2017-04-03T02:40:36.736Z,0
2017-04-03T02:43:46.381Z,0
2017-04-03T02:46:04.321Z,0
2017-04-03T02:46:44.902Z,0
2017-04-03T02:47:25.480Z,0
2017-04-03T02:48:06.061Z,0
2017-04-03T02:48:46.635Z,0
2017-04-03T02:49:27.217Z,0
2017-04-03T02:50:07.786Z,0
2017-04-03T02:50:48.373Z,0
2017-04-03T02:51:28.959Z,0
2017-04-03T02:52:09.535Z,0
2017-04-03T02:52:50.120Z,0
2017-04-03T02:53:30.705Z,0
2017-04-03T02:54:11.274Z,0
2017-04-03T02:54:51.850Z,0
2017-04-03T02:55:32.425Z,0
2017-04-03T02:57:50.362Z,0
2017-04-03T02:58:30.938Z,0
2017-04-03T02:59:11.521Z,0
2017-04-03T02:59:52.104Z,0
2017-04-03T03:00:32.679Z,0
2017-04-03T03:01:13.258Z,0
2017-04-03T03:01:53.841Z,0
2017-04-03T03:02:34.423Z,0
2017-04-03T03:03:15.005Z,0
2017-04-03T03:03:55.588Z,0
2017-04-03T03:04:36.167Z,0
2017-04-03T03:05:16.748Z,0
2017-04-03T03:05:57.328Z,0
2017-04-03T03:06:37.908Z,0
2017-04-03T03:07:18.488Z,0
2017-04-03T03:07:59.072Z,0
2017-04-03T03:08:39.648Z,0
2017-04-03T03:09:20.237Z,0
2017-04-03T03:11:38.180Z,0
2017-04-03T03:12:18.769Z,0
2017-04-03T03:12:59.342Z,0
2017-04-03T03:13:39.934Z,0
2017-04-03T03:14:20.507Z,0
2017-04-03T03:15:01.095Z,0
2017-04-03T03:15:41.680Z,0
2017-04-03T03:16:22.262Z,0
2017-04-03T03:17:02.871Z,0
2017-04-03T03:17:43.423Z,0
2017-04-03T03:18:24.008Z,0
2017-04-03T03:19:04.579Z,0
2017-04-03T03:19:45.181Z,0
2017-04-03T03:20:25.764Z,0
2017-04-03T03:21:06.503Z,0
2017-04-03T03:21:47.718Z,0
2017-04-03T03:22:28.439Z,0
2017-04-03T03:23:09.436Z,0
2017-04-03T03:23:50.496Z,0
2017-04-03T03:24:31.292Z,0
2017-04-03T03:25:12.122Z,0
2017-04-03T03:25:52.692Z,0
2017-04-03T03:26:33.472Z,0
2017-04-03T03:27:14.258Z,0
2017-04-03T03:27:54.992Z,0
2017-04-03T03:28:35.889Z,0
2017-04-03T03:29:16.554Z,0
2017-04-03T03:29:57.138Z,0
2017-04-03T03:30:38.389Z,0
2017-04-03T03:31:19.117Z,0
2017-04-03T03:31:59.688Z,0
2017-04-03T03:32:40.615Z,0
2017-04-03T03:33:21.558Z,0
2017-04-03T03:34:02.490Z,0
2017-04-03T03:34:43.387Z,0
2017-04-03T03:35:23.965Z,0
2017-04-03T03:36:04.858Z,0
2017-04-03T03:36:45.825Z,0
2017-04-03T03:37:26.772Z,0
2017-04-03T03:38:07.754Z,0
2017-04-03T03:38:48.449Z,0
2017-04-03T03:39:29.181Z,0
2017-04-03T03:40:09.863Z,0
2017-04-03T03:40:50.442Z,0
2017-04-03T03:41:31.101Z,0
2017-04-03T03:42:11.680Z,0
2017-04-03T03:42:52.261Z,0
2017-04-03T03:43:32.834Z,0
2017-04-03T03:44:13.410Z,0
2017-04-03T03:44:53.997Z,0
2017-04-03T03:45:34.577Z,0
2017-04-03T03:46:15.151Z,0
2017-04-03T03:46:55.761Z,0
2017-04-03T03:47:36.307Z,0
2017-04-03T03:48:16.885Z,0
2017-04-03T03:48:57.472Z,0
2017-04-03T03:49:38.054Z,0
2017-04-03T03:50:18.632Z,0
2017-04-03T03:50:59.218Z,0
2017-04-03T03:51:39.807Z,0
2017-04-03T03:52:20.375Z,0
2017-04-03T03:53:00.955Z,0
2017-04-03T03:53:41.546Z,0
2017-04-03T03:54:22.132Z,0
2017-04-03T03:55:02.710Z,0
2017-04-03T03:55:43.291Z,0
2017-04-03T03:56:23.868Z,0
2017-04-03T03:57:04.447Z,0
2017-04-03T03:57:45.027Z,0
2017-04-03T03:58:25.609Z,0
2017-04-03T03:59:06.191Z,0
2017-04-03T03:59:46.774Z,0
2017-04-03T04:00:27.347Z,0
2017-04-03T04:01:07.939Z,0
2017-04-03T04:01:48.524Z,0
2017-04-03T04:02:29.117Z,0
2017-04-03T04:03:09.696Z,0
2017-04-03T04:03:50.270Z,0
2017-04-03T04:04:30.848Z,0
2017-04-03T04:05:11.431Z,0
2017-04-03T04:05:52.017Z,0
2017-04-03T04:06:32.596Z,0
2017-04-03T04:07:13.179Z,0
2017-04-03T04:07:53.761Z,0
2017-04-03T04:08:34.333Z,0
2017-04-03T04:09:14.918Z,0
2017-04-03T04:09:55.488Z,0
2017-04-03T04:10:36.087Z,0
2017-04-03T04:11:16.664Z,0
2017-04-03T04:11:57.244Z,0
2017-04-03T04:12:37.826Z,0
2017-04-03T04:13:18.407Z,0
2017-04-03T04:13:58.984Z,0
2017-04-03T04:14:39.565Z,0
2017-04-03T04:15:20.142Z,0
2017-04-03T04:16:00.718Z,0
2017-04-03T04:16:41.304Z,0
2017-04-03T04:17:21.894Z,0
2017-04-03T04:18:02.476Z,0
2017-04-03T04:18:43.060Z,0
2017-04-03T04:19:23.630Z,0
2017-04-03T04:20:04.216Z,0
2017-04-03T04:20:44.796Z,0
2017-04-03T04:21:25.379Z,0
2017-04-03T04:22:05.961Z,0
2017-04-03T04:22:46.547Z,0
2017-04-03T04:23:27.122Z,0
2017-04-03T04:24:07.697Z,0
2017-04-03T04:24:48.267Z,0
2017-04-03T04:25:28.844Z,0
2017-04-03T04:26:09.428Z,0
2017-04-03T04:26:50.011Z,0
2017-04-03T04:27:30.586Z,0
2017-04-03T04:28:11.171Z,0
2017-04-03T04:30:49.452Z,0
2017-04-03T04:31:30.039Z,0
2017-04-03T04:32:10.621Z,0
2017-04-03T04:32:51.196Z,0
2017-04-03T04:33:31.778Z,0
2017-04-03T04:34:12.350Z,0
2017-04-03T04:34:52.931Z,0
2017-04-03T04:35:33.512Z,0
2017-04-03T04:36:14.086Z,0
2017-04-03T04:36:54.667Z,0
2017-04-03T04:37:35.250Z,0
2017-04-03T04:38:15.818Z,0
2017-04-03T04:38:56.390Z,0
2017-04-03T04:39:36.956Z,0
2017-04-03T04:40:17.550Z,0
2017-04-03T04:40:58.152Z,0
2017-04-03T04:41:38.734Z,5
2017-04-03T04:42:19.309Z,5
2017-04-03T04:42:59.884Z,5
2017-04-03T04:43:40.460Z,5
2017-04-03T04:44:21.031Z,5
2017-04-03T04:46:54.213Z,5
2017-04-03T04:47:34.794Z,5
2017-04-03T04:48:15.357Z,5
2017-04-03T04:48:55.942Z,10
2017-04-03T04:49:36.529Z,10
2017-04-03T04:50:17.101Z,10
2017-04-03T04:50:57.697Z,10
2017-04-03T04:51:38.277Z,10
2017-04-03T04:52:18.849Z,10
2017-04-03T04:52:59.424Z,15
2017-04-03T04:53:40.005Z,15
2017-04-03T04:54:20.626Z,15
2017-04-03T04:55:01.171Z,15
2017-04-03T04:55:41.752Z,15
2017-04-03T04:56:22.336Z,20
2017-04-03T04:57:02.909Z,20
2017-04-03T04:59:41.182Z,25
2017-04-03T05:00:21.773Z,25
2017-04-03T05:01:02.350Z,25
2017-04-03T05:01:42.937Z,30
2017-04-03T05:02:23.516Z,30
2017-04-03T05:03:04.087Z,30
2017-04-03T05:03:44.654Z,35
2017-04-03T05:04:25.239Z,35
2017-04-03T05:05:05.817Z,40
2017-04-03T05:05:46.388Z,40
2017-04-03T05:06:26.952Z,40
2017-04-03T05:07:07.540Z,45
2017-04-03T05:07:48.123Z,45
2017-04-03T05:08:28.691Z,50
2017-04-03T05:09:09.271Z,50
2017-04-03T05:09:49.851Z,55
2017-04-03T05:10:30.425Z,55
2017-04-03T05:11:10.998Z,60
2017-04-03T05:11:51.578Z,60
2017-04-03T05:12:32.156Z,65
2017-04-03T05:13:12.737Z,65
2017-04-03T05:13:53.321Z,70
2017-04-03T05:14:33.909Z,75
2017-04-03T05:15:14.485Z,75
2017-04-03T05:15:55.057Z,80
2017-04-03T05:16:35.649Z,85
2017-04-03T05:17:16.220Z,85
2017-04-03T05:17:56.797Z,90
2017-04-03T05:18:37.377Z,95
2017-04-03T05:19:17.956Z,95
2017-04-03T05:19:58.529Z,100
2017-04-03T05:20:39.109Z,105
2017-04-03T05:21:19.690Z,110
2017-04-03T05:22:00.274Z,115
2017-04-03T05:22:40.852Z,120
2017-04-03T05:23:21.440Z,125
2017-04-03T05:24:02.012Z,130
2017-04-03T05:24:42.595Z,135
2017-04-03T05:25:23.183Z,140
2017-04-03T05:26:03.754Z,145
2017-04-03T05:26:44.332Z,150
2017-04-03T05:27:24.906Z,155
2017-04-03T05:28:05.487Z,160
2017-04-03T05:28:46.063Z,165
2017-04-03T05:29:26.643Z,170
2017-04-03T05:30:07.226Z,175
2017-04-03T05:32:40.411Z,190
2017-04-03T05:33:20.991Z,195
2017-04-03T05:34:01.561Z,200
2017-04-03T05:34:42.143Z,205
2017-04-03T05:35:22.720Z,210
2017-04-03T05:36:03.293Z,215
2017-04-03T05:36:43.858Z,220
2017-04-03T05:37:24.440Z,225
2017-04-03T05:38:05.018Z,230
2017-04-03T05:38:45.584Z,235
2017-04-03T05:39:26.159Z,240
2017-04-03T05:40:06.738Z,245
2017-04-03T05:40:47.309Z,250
2017-04-03T05:43:20.497Z,260
2017-04-03T05:44:01.079Z,260
2017-04-03T05:44:56.420Z,260
2017-04-03T05:45:36.990Z,260
2017-04-03T05:46:17.567Z,265
2017-04-03T05:46:58.140Z,265
2017-04-03T05:47:38.726Z,265
2017-04-03T05:48:19.301Z,265
2017-04-03T05:48:59.882Z,265
2017-04-03T05:49:40.461Z,265
2017-04-03T05:50:21.050Z,270
2017-04-03T05:51:01.632Z,270
2017-04-03T05:51:42.201Z,275
2017-04-03T05:52:22.784Z,280
2017-04-03T05:53:03.356Z,285
2017-04-03T05:53:43.938Z,290
2017-04-03T05:54:24.518Z,295
2017-04-03T05:55:05.101Z,305
2017-04-03T05:55:45.685Z,310
2017-04-03T05:56:26.275Z,315
2017-04-03T05:57:06.851Z,325
2017-04-03T05:57:47.432Z,330
2017-04-03T05:58:28.014Z,340
2017-04-03T05:59:08.588Z,350
2017-04-03T05:59:49.171Z,360
2017-04-03T06:00:29.755Z,370
2017-04-03T06:01:10.341Z,385
2017-04-03T06:01:50.929Z,400
2017-04-03T06:02:31.503Z,410
2017-04-03T06:03:12.089Z,415
2017-04-03T06:03:52.668Z,420
2017-04-03T06:04:33.255Z,420
2017-04-03T06:05:13.841Z,410
2017-04-03T06:05:54.419Z,405
2017-04-03T06:06:35.006Z,395
2017-04-03T06:07:15.589Z,380
2017-04-03T06:07:56.164Z,365
2017-04-03T06:08:36.750Z,355
2017-04-03T06:09:17.316Z,345
2017-04-03T06:09:57.897Z,335
2017-04-03T06:10:38.472Z,325
2017-04-03T06:11:19.046Z,315
2017-04-03T06:11:59.629Z,305
2017-04-03T06:12:40.212Z,295
2017-04-03T06:13:20.791Z,290
2017-04-03T06:14:01.370Z,280
2017-04-03T06:14:41.952Z,280
2017-04-03T06:15:22.541Z,275
2017-04-03T06:16:03.123Z,270
2017-04-03T06:16:43.706Z,270
2017-04-03T06:17:24.288Z,265
2017-04-03T06:18:04.872Z,265
2017-04-03T06:18:45.454Z,265
2017-04-03T06:19:26.036Z,265
2017-04-03T06:20:21.426Z,265
2017-04-03T06:21:02.008Z,260
2017-04-03T06:21:42.626Z,255
2017-04-03T06:22:23.177Z,255
2017-04-03T06:23:03.745Z,250
2017-04-03T06:23:44.327Z,250
2017-04-03T06:24:24.911Z,250
2017-04-03T06:25:05.501Z,250
2017-04-03T06:25:46.088Z,250
2017-04-03T06:26:26.661Z,245
2017-04-03T06:27:07.231Z,245
2017-04-03T06:27:47.816Z,245
2017-04-03T06:28:28.405Z,270
2017-04-03T06:29:08.978Z,245
2017-04-03T06:29:49.590Z,245
2017-04-03T06:30:30.150Z,240
2017-04-03T06:31:10.752Z,245
2017-04-03T06:31:51.309Z,245
2017-04-03T06:32:31.881Z,245
2017-04-03T06:33:12.454Z,245
2017-04-03T06:33:53.041Z,250
2017-04-03T06:34:33.617Z,250
2017-04-03T06:35:14.211Z,255
2017-04-03T06:35:54.783Z,255
2017-04-03T06:36:35.364Z,260
2017-04-03T06:37:15.977Z,260
2017-04-03T06:37:56.522Z,265
2017-04-03T06:38:37.101Z,270
2017-04-03T06:39:17.682Z,275
2017-04-03T06:39:58.264Z,275
2017-04-03T06:40:38.840Z,280
2017-04-03T06:41:19.420Z,285
2017-04-03T06:42:00.000Z,290
2017-04-03T06:42:40.575Z,300
2017-04-03T06:43:21.158Z,305
2017-04-03T06:44:01.734Z,315
2017-04-03T06:44:42.305Z,320
2017-04-03T06:45:22.885Z,330
2017-04-03T06:46:03.461Z,335
2017-04-03T06:46:44.044Z,345
2017-04-03T06:47:24.626Z,350
2017-04-03T06:48:05.208Z,365
2017-04-03T06:48:45.792Z,380
2017-04-03T06:49:26.367Z,410
2017-04-03T06:50:06.954Z,465
2017-04-03T06:50:47.528Z,455
2017-04-03T06:51:28.107Z,485
2017-04-03T06:52:08.691Z,490
2017-04-03T06:52:49.271Z,510
2017-04-03T06:55:22.457Z,570
2017-04-03T06:56:03.039Z,600
2017-04-03T06:56:43.618Z,715
2017-04-03T06:57:24.201Z,940
2017-04-03T06:58:04.781Z,795
2017-04-03T06:58:45.351Z,945
2017-04-03T06:59:25.938Z,1135
2017-04-03T07:00:06.516Z,1135
2017-04-03T07:00:47.095Z,1115
2017-04-03T07:01:27.679Z,1400
2017-04-03T07:02:08.264Z,1450
2017-04-03T07:02:48.846Z,1455
2017-04-03T07:03:29.428Z,1490
2017-04-03T07:04:10.014Z,1505
2017-04-03T07:04:50.595Z,1455
2017-04-03T07:05:31.174Z,1450
2017-04-03T07:06:11.749Z,1525
2017-04-03T07:06:52.332Z,1625
2017-04-03T07:07:32.909Z,1695
2017-04-03T07:08:13.489Z,1740
2017-04-03T07:08:54.073Z,1760
2017-04-03T07:09:34.656Z,1755
2017-04-03T07:10:15.235Z,1750
2017-04-03T07:10:55.825Z,1815
2017-04-03T07:11:36.406Z,1785
2017-04-03T07:12:16.995Z,1795
2017-04-03T07:12:57.578Z,1855
2017-04-03T07:13:38.163Z,1865
2017-04-03T07:14:18.749Z,1890
2017-04-03T07:14:59.336Z,1915
2017-04-03T07:15:54.648Z,1890
2017-04-03T07:16:35.229Z,1850
2017-04-03T07:17:15.812Z,1730
2017-04-03T07:17:56.394Z,1670
2017-04-03T07:18:36.975Z,1410
2017-04-03T07:19:17.564Z,1100
2017-04-03T07:19:58.146Z,1000
2017-04-03T07:20:38.733Z,950
2017-04-03T07:21:19.320Z,935
2017-04-03T07:21:59.902Z,930
2017-04-03T07:22:40.476Z,935
2017-04-03T07:23:21.059Z,950
2017-04-03T07:24:01.652Z,960
2017-04-03T07:24:42.237Z,1095
2017-04-03T07:25:22.818Z,1380
2017-04-03T07:26:03.411Z,1455
2017-04-03T07:26:43.989Z,1535
2017-04-03T07:27:24.578Z,1370
2017-04-03T07:28:05.174Z,1370
2017-04-03T07:28:45.743Z,1355
2017-04-03T07:29:26.328Z,1440
2017-04-03T07:30:06.916Z,1315
2017-04-03T07:30:47.500Z,1235
2017-04-03T07:31:28.085Z,1510
2017-04-03T07:32:08.673Z,1665
2017-04-03T07:32:49.258Z,1825
2017-04-03T07:33:29.845Z,1820
2017-04-03T07:34:10.438Z,1965
2017-04-03T07:34:51.010Z,1955
2017-04-03T07:35:31.591Z,2020
2017-04-03T07:36:12.214Z,1990
2017-04-03T07:36:52.765Z,2020
2017-04-03T07:37:33.349Z,2015
2017-04-03T07:38:13.940Z,2030
2017-04-03T07:38:54.524Z,2030
2017-04-03T07:39:35.106Z,2005
2017-04-03T07:40:15.696Z,1970
2017-04-03T07:40:56.280Z,1885
2017-04-03T07:41:36.863Z,1720
2017-04-03T07:42:17.449Z,1520
2017-04-03T07:42:58.033Z,1155
2017-04-03T07:43:38.621Z,1185
2017-04-03T07:44:19.204Z,1250
2017-04-03T07:44:59.776Z,1440
2017-04-03T07:45:40.363Z,1515
2017-04-03T07:46:20.949Z,1450
2017-04-03T07:47:01.561Z,1350
2017-04-03T07:47:42.123Z,1300
2017-04-03T07:48:22.704Z,1570
2017-04-03T07:49:03.297Z,1715
2017-04-03T07:49:43.881Z,1740
2017-04-03T07:50:24.464Z,1680
2017-04-03T07:51:05.048Z,1730
2017-04-03T07:51:45.637Z,1855
2017-04-03T07:52:26.215Z,1965
2017-04-03T07:53:06.806Z,1905
2017-04-03T07:53:47.392Z,1830
2017-04-03T07:54:27.975Z,1750
2017-04-03T07:55:08.569Z,1830
2017-04-03T07:55:49.152Z,1775
2017-04-03T07:56:29.736Z,1935
2017-04-03T07:57:10.308Z,1935
2017-04-03T07:57:50.897Z,1880
2017-04-03T07:58:31.487Z,1820
2017-04-03T07:59:12.069Z,1795
2017-04-03T07:59:52.655Z,1825
2017-04-03T08:00:33.244Z,1715
2017-04-03T08:01:13.823Z,1890
2017-04-03T08:01:54.396Z,1990
2017-04-03T08:02:49.662Z,2025
2017-04-03T08:03:30.248Z,2045
2017-04-03T08:04:10.837Z,2010
2017-04-03T08:04:51.415Z,1855
2017-04-03T08:05:31.989Z,1740
2017-04-03T08:06:12.582Z,1450
2017-04-03T08:06:53.161Z,1340
2017-04-03T08:07:33.752Z,1420
2017-04-03T08:08:14.337Z,1390
2017-04-03T08:08:54.926Z,1335
2017-04-03T08:09:35.497Z,1560
2017-04-03T08:10:16.081Z,1885
2017-04-03T08:10:56.669Z,1865
2017-04-03T08:11:37.249Z,1940
2017-04-03T08:12:17.830Z,1950
2017-04-03T08:12:58.407Z,1905
2017-04-03T08:13:38.995Z,1980
2017-04-03T08:14:19.579Z,1795
2017-04-03T08:15:00.168Z,1560
2017-04-03T08:15:40.745Z,1435
2017-04-03T08:16:21.337Z,1640
2017-04-03T08:17:01.921Z,1445
2017-04-03T08:17:42.509Z,1435
2017-04-03T08:18:23.089Z,1365
2017-04-03T08:19:03.677Z,1340
2017-04-03T08:19:44.265Z,1600
2017-04-03T08:20:24.852Z,1975
2017-04-03T08:21:05.438Z,2020
2017-04-03T08:21:46.022Z,1985
2017-04-03T08:22:41.305Z,1950
2017-04-03T08:23:21.893Z,1915
2017-04-03T08:24:02.482Z,1730
2017-04-03T08:24:43.059Z,1630
2017-04-03T08:25:23.658Z,1915
2017-04-03T08:26:04.242Z,1985
2017-04-03T08:26:44.854Z,1965
2017-04-03T08:27:25.416Z,2010
2017-04-03T08:28:06.006Z,1860
2017-04-03T08:28:46.590Z,2040
2017-04-03T08:29:27.174Z,2100
2017-04-03T08:30:07.764Z,2050
2017-04-03T08:30:48.339Z,2180
2017-04-03T08:31:43.925Z,2165
2017-04-03T08:32:24.502Z,2150
2017-04-03T08:33:05.091Z,2135
2017-04-03T08:33:45.711Z,2140
2017-04-03T08:34:26.269Z,2130
2017-04-03T08:35:06.851Z,2110
2017-04-03T08:35:47.439Z,2075
2017-04-03T08:36:28.029Z,1935
2017-04-03T08:37:08.622Z,1750
2017-04-03T08:37:49.197Z,1565
2017-04-03T08:38:29.776Z,1430
2017-04-03T08:39:10.361Z,1250
2017-04-03T08:39:50.945Z,1190
2017-04-03T08:40:31.533Z,1175
2017-04-03T08:41:12.118Z,1320
2017-04-03T08:41:52.705Z,1130
2017-04-03T08:42:33.291Z,1085
2017-04-03T08:43:13.876Z,1065
2017-04-03T08:43:54.452Z,1025
2017-04-03T08:44:35.033Z,990
2017-04-03T08:45:15.616Z,925
2017-04-03T08:45:56.205Z,865
2017-04-03T08:46:36.789Z,820
2017-04-03T08:47:17.378Z,795
2017-04-03T08:47:57.962Z,770
2017-04-03T08:48:38.552Z,745
2017-04-03T08:49:19.139Z,720
2017-04-03T08:49:59.723Z,705
2017-04-03T08:50:40.312Z,700
2017-04-03T08:51:20.887Z,690
2017-04-03T08:52:01.473Z,675
2017-04-03T08:52:42.047Z,670
2017-04-03T08:53:22.634Z,665
2017-04-03T08:54:03.225Z,660
2017-04-03T08:54:43.813Z,660
2017-04-03T08:55:24.401Z,655
2017-04-03T08:56:04.983Z,645
2017-04-03T08:56:45.579Z,630
2017-04-03T08:57:26.170Z,625
2017-04-03T08:58:06.753Z,620
2017-04-03T08:58:47.349Z,625
2017-04-03T08:59:42.685Z,640
2017-04-03T09:00:23.260Z,655
2017-04-03T09:01:03.849Z,675
2017-04-03T09:01:44.438Z,690
2017-04-03T09:02:25.022Z,700
2017-04-03T09:03:05.610Z,705
2017-04-03T09:03:46.188Z,705
2017-04-03T09:04:26.778Z,705
2017-04-03T09:05:07.364Z,710
2017-04-03T09:05:47.952Z,720
2017-04-03T09:06:28.547Z,735
2017-04-03T09:07:09.127Z,730
2017-04-03T09:07:49.711Z,720
2017-04-03T09:08:30.294Z,705
2017-04-03T09:09:10.881Z,685
2017-04-03T09:09:51.467Z,670
2017-04-03T09:10:32.040Z,675
2017-04-03T09:11:12.624Z,690
2017-04-03T09:11:53.211Z,720
2017-04-03T09:12:33.785Z,750
2017-04-03T09:13:14.368Z,770
2017-04-03T09:13:54.954Z,795
2017-04-03T09:14:35.534Z,825
2017-04-03T09:15:16.123Z,845
2017-04-03T09:15:56.712Z,860
2017-04-03T09:16:37.294Z,835
2017-04-03T09:17:17.886Z,740
2017-04-03T09:17:58.474Z,710
2017-04-03T09:18:39.064Z,705
2017-04-03T09:19:19.638Z,705
2017-04-03T09:20:00.227Z,720
2017-04-03T09:20:40.809Z,740
2017-04-03T09:21:21.407Z,755
2017-04-03T09:22:01.998Z,755
2017-04-03T09:22:42.580Z,750
2017-04-03T09:23:23.170Z,710
2017-04-03T09:24:03.755Z,665
2017-04-03T09:24:44.337Z,640
2017-04-03T09:25:24.917Z,630
2017-04-03T09:26:05.508Z,625
2017-04-03T09:26:46.092Z,635
2017-04-03T09:27:26.679Z,670
2017-04-03T09:28:07.266Z,720
2017-04-03T09:28:47.847Z,770
2017-04-03T09:29:28.438Z,805
2017-04-03T09:30:09.019Z,815
2017-04-03T09:30:49.604Z,805
2017-04-03T09:31:30.180Z,800
2017-04-03T09:32:11.304Z,790
2017-04-03T09:32:51.892Z,765
2017-04-03T09:33:32.474Z,750
2017-04-03T09:34:13.059Z,735
2017-04-03T09:34:53.646Z,720
2017-04-03T09:35:34.222Z,715
2017-04-03T09:36:14.817Z,700
2017-04-03T09:36:55.396Z,720
2017-04-03T09:39:28.601Z,760
2017-04-03T09:40:09.191Z,755
2017-04-03T09:42:42.374Z,815
2017-04-03T09:43:22.958Z,800
2017-04-03T09:44:03.541Z,790
2017-04-03T09:44:44.125Z,770
2017-04-03T09:45:24.711Z,755
2017-04-03T09:46:05.298Z,735
2017-04-03T09:46:45.879Z,720
2017-04-03T09:47:26.467Z,730
2017-04-03T09:48:07.052Z,780
2017-04-03T09:48:47.638Z,830
2017-04-03T09:49:45.061Z,885
2017-04-03T09:50:25.646Z,910
2017-04-03T09:51:06.233Z,925
2017-04-03T09:51:46.816Z,880
2017-04-03T09:52:27.400Z,855
2017-04-03T09:53:07.986Z,845
2017-04-03T09:53:48.572Z,835
2017-04-03T09:54:29.151Z,825
2017-04-03T09:55:09.735Z,845
2017-04-03T09:55:50.315Z,855
2017-04-03T09:56:30.902Z,900
2017-04-03T09:57:11.481Z,930
2017-04-03T09:57:52.078Z,945
2017-04-03T09:58:32.648Z,935
2017-04-03T09:59:13.244Z,895
2017-04-03T09:59:53.830Z,850
2017-04-03T10:00:34.421Z,835
2017-04-03T10:01:15.037Z,815
2017-04-03T10:01:55.576Z,780
2017-04-03T10:02:36.165Z,745
2017-04-03T10:03:16.753Z,695
2017-04-03T10:03:57.341Z,670
2017-04-03T10:04:37.926Z,660
2017-04-03T10:05:18.510Z,660
2017-04-03T10:05:59.098Z,670
2017-04-03T10:06:39.684Z,675
2017-04-03T10:07:20.268Z,690